createdAt,value
2023-05-06T00:01:24.364Z,5.22
2023-05-06T00:06:17.971Z,4.88
2023-05-06T00:08:46.139Z,5.32
2023-05-06T00:11:13.870Z,4.82
2023-05-06T00:13:41.224Z,5.00
2023-05-06T00:16:10.824Z,5.00
2023-05-06T00:18:37.312Z,6.07
2023-05-06T00:21:04.183Z,5.30
2023-05-06T00:23:30.873Z,5.32
2023-05-06T00:25:57.887Z,5.22
2023-05-06T00:28:25.046Z,5.30
2023-05-06T00:30:51.904Z,6.45
2023-05-06T00:35:45.364Z,5.40
2023-05-06T00:38:13.864Z,5.30
2023-05-06T00:40:40.947Z,5.32
2023-05-06T00:43:08.201Z,6.53
2023-05-06T00:45:35.441Z,5.05
2023-05-06T00:48:03.244Z,4.53
2023-05-06T00:50:32.528Z,4.80
2023-05-06T00:53:00.167Z,5.30
2023-05-06T00:55:29.049Z,5.05
2023-05-06T00:57:56.032Z,4.97
2023-05-06T01:00:23.255Z,5.40
2023-05-06T01:02:49.933Z,5.38
2023-05-06T01:08:16.683Z,5.50
2023-05-06T01:11:02.471Z,5.55
2023-05-06T01:13:45.497Z,5.72
2023-05-06T01:16:14.127Z,6.45
2023-05-06T01:18:43.387Z,5.50
2023-05-06T01:21:12.695Z,5.75
2023-05-06T01:23:54.284Z,5.65
2023-05-06T01:26:21.554Z,6.75
2023-05-06T01:28:48.543Z,6.15
2023-05-06T01:31:40.982Z,6.40
2023-05-06T01:34:27.852Z,6.05
2023-05-06T01:51:29.788Z,5.88
2023-05-06T01:56:22.653Z,5.97
2023-05-06T01:58:49.084Z,6.28
2023-05-06T02:01:15.682Z,5.75
2023-05-06T02:03:42.193Z,6.32
2023-05-06T02:06:08.725Z,5.90
2023-05-06T02:08:35.160Z,5.40
2023-05-06T02:11:01.574Z,6.45
2023-05-06T02:13:28.087Z,6.80
2023-05-06T02:15:55.234Z,5.47
2023-05-06T02:18:22.196Z,5.47
2023-05-06T02:20:48.631Z,5.57
2023-05-06T02:23:15.077Z,6.30
2023-05-06T02:25:41.500Z,5.82
2023-05-06T02:28:08.014Z,5.72
2023-05-06T02:30:34.904Z,6.40
2023-05-06T02:33:01.437Z,7.63
2023-05-06T02:35:27.969Z,6.03
2023-05-06T02:37:54.417Z,6.63
2023-05-06T02:40:20.828Z,5.72
2023-05-06T02:42:47.316Z,5.20
2023-05-06T02:45:13.906Z,6.05
2023-05-06T02:47:40.590Z,5.93
2023-05-06T02:52:34.628Z,5.80
2023-05-06T02:55:02.147Z,5.97
2023-05-06T02:57:28.773Z,5.45
2023-05-06T02:59:55.209Z,6.47
2023-05-06T03:02:21.737Z,5.55
2023-05-06T03:04:48.218Z,6.82
2023-05-06T03:07:14.628Z,6.57
2023-05-06T03:09:41.066Z,6.40
2023-05-06T03:12:07.496Z,6.35
2023-05-06T03:14:34.070Z,5.75
2023-05-06T03:17:00.543Z,6.30
2023-05-06T03:19:27.037Z,5.97
2023-05-06T03:21:53.504Z,5.70
2023-05-06T03:24:20.312Z,5.65
2023-05-06T03:29:13.133Z,5.90
2023-05-06T03:31:39.697Z,5.57
2023-05-06T03:34:06.330Z,5.05
2023-05-06T03:36:33.088Z,5.47
2023-05-06T03:41:25.876Z,6.30
2023-05-06T03:43:52.798Z,5.80
2023-05-06T03:46:19.263Z,6.35
2023-05-06T03:48:45.748Z,6.43
2023-05-06T03:51:12.249Z,5.82
2023-05-06T03:53:38.715Z,6.30
2023-05-06T03:56:05.564Z,6.50
2023-05-06T03:58:32.017Z,5.85
2023-05-06T04:01:00.959Z,6.50
2023-05-06T04:03:27.589Z,6.40
2023-05-06T04:05:54.118Z,6.65
2023-05-06T04:08:20.601Z,6.63
2023-05-06T04:10:47.077Z,6.28
2023-05-06T04:13:13.536Z,6.25
2023-05-06T04:15:41.554Z,6.63
2023-05-06T04:18:08.309Z,5.18
2023-05-06T04:20:34.926Z,8.25
2023-05-06T04:23:01.812Z,6.38
2023-05-06T04:25:28.789Z,6.30
2023-05-06T04:27:55.257Z,6.35
2023-05-06T04:30:22.560Z,6.32
2023-05-06T04:32:51.498Z,6.32
2023-05-06T04:35:18.072Z,6.47
2023-05-06T04:37:44.627Z,5.97
2023-05-06T04:40:13.781Z,6.20
2023-05-06T04:42:40.304Z,5.75
2023-05-06T04:45:07.476Z,6.10
2023-05-06T04:47:34.218Z,4.90
2023-05-06T04:50:01.004Z,5.85
2023-05-06T04:54:53.878Z,6.28
2023-05-06T04:57:20.357Z,6.05
2023-05-06T04:59:46.828Z,5.53
2023-05-06T05:02:13.476Z,6.55
2023-05-06T05:04:39.919Z,6.25
2023-05-06T05:07:07.527Z,6.05
2023-05-06T05:09:35.435Z,6.03
2023-05-06T05:12:03.080Z,6.82
2023-05-06T05:14:29.832Z,7.43
2023-05-06T05:19:22.845Z,5.72
2023-05-06T05:21:49.728Z,6.20
2023-05-06T05:24:16.366Z,6.68
2023-05-06T05:26:42.830Z,5.97
2023-05-06T05:29:09.339Z,6.07
2023-05-06T05:31:35.949Z,6.00
2023-05-06T05:34:02.451Z,6.40
2023-05-06T05:36:29.057Z,5.75
2023-05-06T05:38:55.580Z,5.97
2023-05-06T05:41:22.015Z,6.35
2023-05-06T05:43:48.477Z,5.97
2023-05-06T05:46:15.272Z,6.45
2023-05-06T05:51:08.513Z,6.47
2023-05-06T05:53:34.971Z,6.00
2023-05-06T05:56:01.435Z,6.45
2023-05-06T05:58:27.917Z,6.22
2023-05-06T06:00:54.391Z,6.38
2023-05-06T06:03:21.059Z,6.22
2023-05-06T06:08:18.396Z,6.30
2023-05-06T06:10:45.253Z,6.80
2023-05-06T06:13:11.964Z,6.25
2023-05-06T06:15:39.009Z,6.70
2023-05-06T06:18:08.989Z,6.60
2023-05-06T06:20:37.488Z,7.40
2023-05-06T06:23:04.390Z,6.38
2023-05-06T06:25:31.035Z,6.57
2023-05-06T06:27:57.544Z,6.38
2023-05-06T06:30:24.512Z,6.57
2023-05-06T06:32:52.983Z,7.07
2023-05-06T06:35:23.550Z,6.40
2023-05-06T06:37:50.587Z,7.25
2023-05-06T06:40:17.280Z,7.43
2023-05-06T06:42:43.846Z,7.03
2023-05-06T06:45:11.438Z,7.25
2023-05-06T06:47:38.626Z,7.75
2023-05-06T06:50:06.027Z,7.50
2023-05-06T06:52:32.751Z,7.25
2023-05-06T06:57:25.993Z,8.93
2023-05-06T07:02:23.596Z,7.25
2023-05-06T07:04:50.277Z,7.97
2023-05-06T07:07:23.552Z,7.65
2023-05-06T07:09:50.273Z,7.50
2023-05-06T07:12:16.958Z,8.07
2023-05-06T07:14:43.734Z,8.43
2023-05-06T07:19:37.370Z,6.97
2023-05-06T07:22:04.067Z,7.88
2023-05-06T07:24:33.984Z,7.95
2023-05-06T07:27:01.630Z,8.07
2023-05-06T07:29:28.367Z,7.18
2023-05-06T07:34:26.450Z,7.47
2023-05-06T07:36:56.335Z,7.50
2023-05-06T07:39:23.125Z,7.85
2023-05-06T07:44:16.526Z,7.97
2023-05-06T07:49:09.877Z,7.53
2023-05-06T07:51:36.370Z,8.30
2023-05-06T07:54:03.225Z,8.48
2023-05-06T07:56:29.699Z,8.10
2023-05-06T07:58:56.279Z,8.10
2023-05-06T08:01:22.847Z,7.93
2023-05-06T08:03:49.677Z,8.00
2023-05-06T08:06:16.446Z,7.70
2023-05-06T08:11:09.556Z,8.13
2023-05-06T08:13:36.031Z,9.30
2023-05-06T08:16:02.768Z,9.07
2023-05-06T08:20:56.086Z,8.85
2023-05-06T08:23:22.795Z,9.10
2023-05-06T08:28:17.934Z,9.30
2023-05-06T08:30:47.693Z,8.70
2023-05-06T08:33:14.513Z,8.45
2023-05-06T08:38:08.867Z,8.10
2023-05-06T08:40:43.265Z,10.23
2023-05-06T08:43:14.858Z,9.48
2023-05-06T08:45:43.722Z,9.50
2023-05-06T08:48:10.605Z,9.77
2023-05-06T08:50:42.490Z,9.98
2023-05-06T08:53:12.012Z,8.77
2023-05-06T08:55:40.938Z,9.43
2023-05-06T08:58:08.171Z,8.52
2023-05-06T09:00:35.425Z,9.65
2023-05-06T09:03:02.019Z,9.95
2023-05-06T09:05:28.997Z,9.65
2023-05-06T09:07:55.693Z,9.25
2023-05-06T09:10:22.450Z,9.57
2023-05-06T09:15:15.442Z,10.43
2023-05-06T09:17:42.009Z,9.57
2023-05-06T09:20:12.006Z,10.27
2023-05-06T09:22:40.308Z,9.27
2023-05-06T09:25:07.500Z,9.35
2023-05-06T09:27:36.662Z,9.63
2023-05-06T09:30:14.201Z,9.65
2023-05-06T09:32:41.159Z,9.13
2023-05-06T09:35:09.449Z,9.05
2023-05-06T09:37:36.326Z,10.48
2023-05-06T09:40:02.807Z,9.18
2023-05-06T09:42:30.697Z,10.13
2023-05-06T09:45:07.503Z,10.40
2023-05-06T09:47:35.198Z,9.25
2023-05-06T09:50:03.274Z,10.75
2023-05-06T09:52:31.133Z,10.10
2023-05-06T09:54:58.037Z,10.05
2023-05-06T09:57:25.802Z,10.02
2023-05-06T09:59:54.086Z,10.63
2023-05-06T10:02:23.287Z,9.40
2023-05-06T10:04:52.980Z,10.25
2023-05-06T10:07:25.649Z,11.45
2023-05-06T10:09:54.365Z,10.52
2023-05-06T10:12:21.033Z,10.65
2023-05-06T10:17:14.404Z,9.32
2023-05-06T10:19:47.289Z,9.73
2023-05-06T10:22:37.222Z,9.90
2023-05-06T10:25:11.009Z,9.32
2023-05-06T10:27:40.833Z,9.30
2023-05-06T10:30:10.163Z,9.02
2023-05-06T10:32:41.300Z,9.57
2023-05-06T10:35:14.789Z,9.52
2023-05-06T10:37:42.946Z,9.05
2023-05-06T10:40:10.277Z,9.40
2023-05-06T10:42:36.697Z,8.85
2023-05-06T10:45:05.103Z,8.45
2023-05-06T10:48:03.766Z,8.30
2023-05-06T10:50:30.325Z,8.95
2023-05-06T10:52:59.120Z,7.88
2023-05-06T10:55:33.654Z,7.55
2023-05-06T10:58:12.804Z,7.45
2023-05-06T11:00:39.458Z,7.30
2023-05-06T11:03:08.376Z,7.47
2023-05-06T11:05:51.982Z,7.32
2023-05-06T11:08:23.649Z,7.88
2023-05-06T11:10:50.187Z,7.20
2023-05-06T11:13:19.001Z,7.32
2023-05-06T11:15:46.444Z,6.60
2023-05-06T11:18:25.235Z,7.20
2023-05-06T11:21:12.657Z,7.63
2023-05-06T11:23:42.481Z,6.13
2023-05-06T11:26:10.443Z,6.43
2023-05-06T11:28:37.542Z,5.50
2023-05-06T11:31:04.444Z,5.72
2023-05-06T11:33:36.660Z,5.25
2023-05-06T11:36:04.595Z,6.00
2023-05-06T11:38:44.812Z,5.00
2023-05-06T11:41:13.004Z,5.60
2023-05-06T11:43:39.862Z,5.05
2023-05-06T11:48:33.164Z,4.28
2023-05-06T11:51:00.103Z,4.75
2023-05-06T11:53:26.612Z,4.10
2023-05-06T11:55:54.036Z,5.10
2023-05-06T11:58:24.948Z,3.97
2023-05-06T12:01:03.166Z,3.45
2023-05-06T12:03:31.434Z,3.80
2023-05-06T12:05:59.250Z,3.78
2023-05-06T12:08:31.705Z,3.60
2023-05-06T12:11:02.015Z,3.30
2023-05-06T12:13:29.571Z,3.65
2023-05-06T12:15:58.871Z,3.70
2023-05-06T12:18:26.221Z,4.05
2023-05-06T12:20:56.383Z,4.03
2023-05-06T12:23:23.485Z,3.45
2023-05-06T12:26:08.450Z,3.45
2023-05-06T12:28:36.773Z,4.00
2023-05-06T12:31:20.159Z,3.83
2023-05-06T12:33:49.799Z,3.97
2023-05-06T12:36:17.465Z,4.07
2023-05-06T12:38:52.547Z,3.25
2023-05-06T12:41:23.376Z,4.10
2023-05-06T12:43:50.284Z,4.00
2023-05-06T12:46:17.293Z,3.47
2023-05-06T12:48:56.865Z,3.63
2023-05-06T12:51:23.777Z,3.92
2023-05-06T12:53:50.263Z,4.10
2023-05-06T12:56:16.706Z,4.28
2023-05-06T12:58:43.120Z,4.28
2023-05-06T13:01:09.543Z,5.00
2023-05-06T13:03:38.577Z,4.00
2023-05-06T13:06:05.761Z,4.50
2023-05-06T13:08:32.186Z,4.43
2023-05-06T13:10:59.741Z,4.70
2023-05-06T13:13:26.192Z,4.63
2023-05-06T13:15:53.547Z,3.97
2023-05-06T13:18:19.964Z,4.20
2023-05-06T13:20:46.388Z,4.00
2023-05-06T13:23:12.811Z,3.80
2023-05-06T13:25:51.712Z,4.43
2023-05-06T13:28:25.630Z,4.50
2023-05-06T13:30:52.162Z,4.28
2023-05-06T13:33:18.641Z,3.88
2023-05-06T13:35:45.084Z,4.20
2023-05-06T13:38:11.483Z,4.32
2023-05-06T13:40:37.904Z,3.97
2023-05-06T13:43:04.379Z,4.15
2023-05-06T13:45:33.614Z,4.00
2023-05-06T13:48:00.213Z,4.20
2023-05-06T13:50:26.659Z,4.45
2023-05-06T13:52:53.088Z,4.20
2023-05-06T13:55:19.690Z,4.25
2023-05-06T13:57:46.127Z,4.20
2023-05-06T14:00:13.146Z,4.10
2023-05-06T14:02:39.667Z,3.70
2023-05-06T14:05:06.776Z,3.83
2023-05-06T14:07:33.806Z,3.85
2023-05-06T14:10:00.735Z,3.33
2023-05-06T14:12:27.284Z,3.38
2023-05-06T14:14:54.249Z,4.43
2023-05-06T14:17:23.132Z,3.47
2023-05-06T14:19:49.631Z,3.60
2023-05-06T14:22:16.051Z,3.00
2023-05-06T14:24:42.453Z,3.78
2023-05-06T14:27:12.721Z,3.85
2023-05-06T14:29:42.598Z,3.70
2023-05-06T14:32:09.646Z,3.60
2023-05-06T14:34:36.907Z,3.17
2023-05-06T14:37:03.602Z,3.13
2023-05-06T14:39:30.055Z,3.45
2023-05-06T14:41:56.477Z,3.00
2023-05-06T14:44:22.934Z,3.22
2023-05-06T14:46:49.892Z,2.53
2023-05-06T14:49:16.526Z,2.47
2023-05-06T14:51:43.410Z,3.13
2023-05-06T14:54:10.306Z,2.85
2023-05-06T14:56:37.239Z,3.33
2023-05-06T14:59:04.274Z,2.75
2023-05-06T15:01:32.233Z,2.58
2023-05-06T15:03:58.778Z,2.10
2023-05-06T15:06:25.414Z,2.72
2023-05-06T15:08:52.121Z,2.35
2023-05-06T15:11:18.567Z,2.67
2023-05-06T15:13:45.061Z,2.80
2023-05-06T15:16:11.721Z,3.10
2023-05-06T15:21:04.841Z,2.63
2023-05-06T15:23:31.282Z,2.38
2023-05-06T15:25:58.227Z,2.50
2023-05-06T15:28:24.890Z,2.20
2023-05-06T15:30:51.462Z,2.45
2023-05-06T15:33:17.941Z,2.80
2023-05-06T15:35:44.644Z,2.30
2023-05-06T15:38:11.094Z,2.63
2023-05-06T15:40:40.523Z,2.58
2023-05-06T15:43:08.468Z,2.60
2023-05-06T15:45:35.409Z,2.22
2023-05-06T15:48:01.857Z,2.47
2023-05-06T15:50:33.289Z,2.35
2023-05-06T15:53:01.156Z,2.33
2023-05-06T15:55:27.754Z,2.40
2023-05-06T15:57:59.827Z,2.65
2023-05-06T16:00:27.878Z,2.38
2023-05-06T16:02:54.521Z,2.30
2023-05-06T16:05:21.004Z,2.55
2023-05-06T16:07:48.485Z,2.63
2023-05-06T16:10:14.917Z,2.38
2023-05-06T16:12:41.497Z,2.72
2023-05-06T16:15:08.551Z,2.42
2023-05-06T16:17:37.650Z,2.42
2023-05-06T16:20:05.347Z,2.25
2023-05-06T16:22:31.859Z,2.50
2023-05-06T16:24:58.335Z,2.55
2023-05-06T16:27:27.433Z,2.55
2023-05-06T16:29:53.943Z,2.80
2023-05-06T16:32:20.449Z,2.47
2023-05-06T16:34:47.018Z,3.03
2023-05-06T16:37:15.304Z,3.20
2023-05-06T16:39:41.843Z,2.80
2023-05-06T16:42:08.282Z,2.95
2023-05-06T16:44:35.188Z,3.13
2023-05-06T16:47:01.966Z,2.80
2023-05-06T16:51:54.912Z,2.97
2023-05-06T16:54:21.348Z,2.75
2023-05-06T16:56:52.065Z,3.72
2023-05-06T16:59:21.665Z,3.50
2023-05-06T17:01:48.798Z,2.75
2023-05-06T17:04:17.933Z,3.55
2023-05-06T17:06:44.375Z,2.85
2023-05-06T17:09:11.045Z,3.70
2023-05-06T17:11:37.542Z,3.85
2023-05-06T17:14:03.991Z,3.55
2023-05-06T17:16:30.469Z,5.10
2023-05-06T17:18:56.970Z,4.55
2023-05-06T17:21:23.785Z,4.07
2023-05-06T17:26:21.053Z,5.10
2023-05-06T17:28:51.073Z,4.85
2023-05-06T17:31:22.498Z,4.43
2023-05-06T17:33:49.056Z,5.30
2023-05-06T17:36:18.484Z,4.90
2023-05-06T17:38:44.991Z,4.88
2023-05-06T17:41:11.970Z,4.63
2023-05-06T17:43:38.610Z,4.80
2023-05-06T17:46:06.584Z,4.18
2023-05-06T17:48:33.112Z,4.40
2023-05-06T17:51:03.236Z,4.55
2023-05-06T17:53:29.954Z,4.20
2023-05-06T17:55:56.382Z,4.72
2023-05-06T17:58:22.893Z,4.90
2023-05-06T18:00:49.321Z,5.13
2023-05-06T18:03:15.819Z,5.47
2023-05-06T18:05:42.253Z,4.95
2023-05-06T18:08:09.542Z,4.38
2023-05-06T18:10:36.125Z,4.70
2023-05-06T18:13:02.684Z,5.10
2023-05-06T18:15:29.247Z,4.68
2023-05-06T18:17:55.878Z,4.68
2023-05-06T18:20:23.179Z,5.93
2023-05-06T18:22:49.631Z,5.95
2023-05-06T18:25:16.231Z,5.93
2023-05-06T18:27:42.909Z,5.32
2023-05-06T18:30:09.614Z,5.80
2023-05-06T18:35:02.541Z,6.05
2023-05-06T18:37:31.924Z,6.60
2023-05-06T18:39:58.630Z,6.85
2023-05-06T18:42:27.448Z,8.45
2023-05-06T18:44:54.413Z,7.20
2023-05-06T18:47:21.004Z,7.85
2023-05-06T18:49:47.663Z,8.50
2023-05-06T18:52:15.271Z,8.15
2023-05-06T18:54:42.037Z,7.63
2023-05-06T18:59:36.285Z,9.07
2023-05-06T19:02:03.866Z,9.13
2023-05-06T19:04:31.713Z,9.90
2023-05-06T19:06:58.283Z,8.60
2023-05-06T19:09:24.936Z,10.13
2023-05-06T19:11:51.501Z,7.60
2023-05-06T19:14:19.536Z,9.00
2023-05-06T19:16:46.543Z,8.57
2023-05-06T19:19:13.101Z,9.05
2023-05-06T19:21:39.637Z,10.20
2023-05-06T19:24:06.501Z,9.40
2023-05-06T19:26:33.115Z,10.85
2023-05-06T19:28:59.621Z,9.80
2023-05-06T19:31:26.397Z,9.88
2023-05-06T19:36:19.438Z,9.93
2023-05-06T19:38:45.902Z,10.57
2023-05-06T19:41:13.202Z,10.60
2023-05-06T19:43:44.204Z,10.77
2023-05-06T19:46:11.778Z,10.20
2023-05-06T19:48:39.153Z,11.07
2023-05-06T19:51:06.685Z,10.55
2023-05-06T19:53:34.128Z,9.35
2023-05-06T19:56:13.542Z,11.00
2023-05-06T19:58:40.694Z,13.43
2023-05-06T20:01:07.382Z,13.55
2023-05-06T20:06:01.671Z,12.75
2023-05-06T20:08:28.283Z,12.65
2023-05-06T20:10:55.010Z,14.15
2023-05-06T20:15:48.814Z,13.77
2023-05-06T20:18:15.449Z,13.52
2023-05-06T20:20:43.323Z,14.50
2023-05-06T20:23:09.781Z,13.38
2023-05-06T20:25:37.367Z,14.07
2023-05-06T20:28:05.956Z,16.60
2023-05-06T20:30:33.207Z,15.15
2023-05-06T20:33:02.080Z,15.25
2023-05-06T20:35:28.574Z,15.93
2023-05-06T20:37:55.880Z,16.10
2023-05-06T20:40:22.476Z,15.07
2023-05-06T20:42:49.077Z,16.08
2023-05-06T20:45:15.646Z,15.70
2023-05-06T20:47:42.283Z,15.02
2023-05-06T20:50:09.426Z,16.17
2023-05-06T20:52:35.937Z,15.50
2023-05-06T20:55:03.293Z,14.57
2023-05-06T20:57:29.812Z,15.00
2023-05-06T20:59:56.293Z,16.88
2023-05-06T21:02:25.029Z,16.42
2023-05-06T21:04:51.890Z,16.70
2023-05-06T21:09:45.759Z,15.90
2023-05-06T21:12:12.786Z,15.00
2023-05-06T21:14:39.705Z,16.80
2023-05-06T21:17:06.236Z,15.75
2023-05-06T21:19:32.754Z,14.70
2023-05-06T21:21:59.185Z,16.35
2023-05-06T21:24:26.073Z,16.45
2023-05-06T21:26:53.699Z,14.82
2023-05-06T21:29:21.341Z,15.27
2023-05-06T21:31:47.974Z,16.90
2023-05-06T21:34:14.502Z,16.77
2023-05-06T21:36:40.984Z,16.02
2023-05-06T21:39:16.879Z,16.35
2023-05-06T21:41:43.384Z,16.77
2023-05-06T21:44:10.392Z,16.15
2023-05-06T21:46:38.080Z,17.42
2023-05-06T21:49:04.842Z,16.58
2023-05-06T21:51:33.204Z,14.88
2023-05-06T21:53:59.804Z,16.67
2023-05-06T21:56:26.458Z,16.83
2023-05-06T21:58:54.699Z,15.07
2023-05-06T22:01:22.048Z,16.42
2023-05-06T22:03:48.632Z,15.88
2023-05-06T22:06:15.695Z,16.77
2023-05-06T22:08:42.161Z,17.63
2023-05-06T22:11:10.595Z,15.88
2023-05-06T22:13:37.185Z,16.25
2023-05-06T22:16:04.172Z,15.85
2023-05-06T22:18:31.927Z,15.40
2023-05-06T22:20:58.738Z,15.32
2023-05-06T22:25:52.241Z,15.00
2023-05-06T22:30:45.559Z,15.57
2023-05-06T22:33:12.158Z,14.63
2023-05-06T22:35:38.622Z,15.32
2023-05-06T22:38:05.056Z,13.70
2023-05-06T22:40:31.514Z,13.40
2023-05-06T22:42:57.929Z,13.95
2023-05-06T22:45:24.383Z,13.43
2023-05-06T22:47:50.966Z,13.38
2023-05-06T22:50:17.532Z,13.98
2023-05-06T22:52:43.935Z,13.40
2023-05-06T22:55:11.052Z,13.25
2023-05-06T22:57:37.825Z,14.32
2023-05-06T23:00:05.819Z,13.68
2023-05-06T23:02:32.939Z,12.82
2023-05-06T23:04:59.474Z,13.85
2023-05-06T23:07:25.976Z,13.68
2023-05-06T23:09:52.435Z,12.98
2023-05-06T23:12:18.852Z,13.27
2023-05-06T23:14:45.284Z,14.07
2023-05-06T23:17:11.781Z,14.18
2023-05-06T23:19:38.193Z,13.50
2023-05-06T23:22:04.631Z,14.05
2023-05-06T23:24:31.060Z,14.15
2023-05-06T23:26:57.535Z,13.48
2023-05-06T23:29:24.006Z,12.90
2023-05-06T23:31:50.470Z,13.38
2023-05-06T23:34:16.903Z,12.85
2023-05-06T23:36:43.370Z,13.57
2023-05-06T23:39:12.215Z,14.05
2023-05-06T23:41:38.781Z,12.07
2023-05-06T23:44:06.253Z,12.88
2023-05-06T23:46:33.068Z,12.07
2023-05-06T23:48:59.597Z,13.38
2023-05-06T23:51:26.582Z,12.52
2023-05-06T23:53:53.118Z,13.10
2023-05-06T23:56:20.588Z,12.68
2023-05-06T23:58:47.029Z,12.93
